Time;durP1;ratioP1;P1;durP2;ratioP2;P2;SDS_P1;SDS_P2;PMS_P1;PMS_P2;Temp;Humidity;BMP_temperature;BMP_pressure;BME280_temperature;BME280_humidity;BME280_pressure;Samples;Min_cycle;Max_cycle;Signal;HPM_P1;HPM_P2
2022/12/28 00:01:23;;;;;;;8.77;4.50;;;;;;;5.41;100.00;101732.69;5046048;28;20040;-72
2022/12/28 00:03:49;;;;;;;13.63;7.95;;;;;;;5.59;100.00;101782.03;5059557;28;20060;-75
2022/12/28 00:06:16;;;;;;;9.65;6.63;;;;;;;4.98;100.00;101674.50;5058817;28;20051;-73
2022/12/28 00:08:42;;;;;;;10.38;4.38;;;;;;;4.61;100.00;101648.59;5057937;28;20067;-74
2022/12/28 00:11:11;;;;;;;6.85;3.78;;;;;;;4.65;100.00;101666.13;5044287;28;20041;-74
2022/12/28 00:13:37;;;;;;;8.07;4.00;;;;;;;5.20;100.00;101751.78;5041456;28;20162;-74
2022/12/28 00:16:09;;;;;;;7.20;4.18;;;;;;;5.27;100.00;101778.94;5039483;28;20479;-75
2022/12/28 00:18:36;;;;;;;7.63;3.47;;;;;;;5.11;100.00;101763.50;5069923;28;20487;-75
2022/12/28 00:21:03;;;;;;;4.93;2.55;;;;;;;4.32;100.00;101653.38;5057743;28;20100;-75
2022/12/28 00:23:30;;;;;;;5.90;3.22;;;;;;;4.12;100.00;101647.31;5057767;28;20080;-74
2022/12/28 00:26:03;;;;;;;11.18;4.30;;;;;;;5.05;100.00;101801.41;5056258;28;20134;-74
2022/12/28 00:28:29;;;;;;;7.20;3.55;;;;;;;4.70;100.00;101804.13;5057203;28;20044;-73
2022/12/28 00:30:57;;;;;;;8.05;3.38;;;;;;;3.98;100.00;101666.53;5059780;28;20049;-73
2022/12/28 00:33:22;;;;;;;5.75;2.72;;;;;;;4.80;100.00;101821.91;5061467;28;20068;-72
2022/12/28 00:35:58;;;;;;;8.48;2.83;;;;;;;3.73;100.00;101664.50;5060723;28;20052;-73
2022/12/28 00:38:24;;;;;;;7.32;3.15;;;;;;;3.79;100.00;101709.81;5060924;28;20098;-73
2022/12/28 00:40:50;;;;;;;3.78;1.60;;;;;;;4.67;100.00;101814.38;5056978;28;20040;-74
2022/12/28 00:43:16;;;;;;;4.78;1.95;;;;;;;4.73;100.00;101817.25;5060817;28;20044;-73
2022/12/28 00:45:47;;;;;;;9.20;2.85;;;;;;;4.71;100.00;101826.72;5061192;28;20037;-73
2022/12/28 00:48:14;;;;;;;3.50;2.05;;;;;;;4.67;100.00;101828.25;5059164;28;20159;-74
2022/12/28 00:50:40;;;;;;;7.38;2.28;;;;;;;4.54;100.00;101797.31;5038760;28;20041;-73
2022/12/28 00:53:06;;;;;;;5.35;2.45;;;;;;;3.97;100.00;101714.97;5037732;28;20217;-73
2022/12/28 00:55:33;;;;;;;13.63;3.13;;;;;;;3.64;100.00;101690.88;5046521;28;20074;-73
2022/12/28 00:58:00;;;;;;;5.65;2.13;;;;;;;4.40;100.00;101818.34;5059320;28;20131;-73
2022/12/28 01:00:26;;;;;;;8.85;3.15;;;;;;;4.48;100.00;101829.09;5058439;28;20144;-74
2022/12/28 01:02:52;;;;;;;7.28;1.85;;;;;;;3.52;100.00;101701.56;5061835;28;20054;-73
2022/12/28 01:05:17;;;;;;;12.73;2.80;;;;;;;4.15;100.00;101794.59;5060392;28;20048;-76
2022/12/28 01:07:43;;;;;;;5.25;3.33;;;;;;;4.38;100.00;101842.50;5058672;28;20533;-75
2022/12/28 01:10:09;;;;;;;6.53;2.67;;;;;;;4.34;100.00;101844.03;5057338;28;20051;-75
2022/12/28 01:12:35;;;;;;;8.75;2.72;;;;;;;4.29;100.00;101840.31;5057835;28;20042;-75
2022/12/28 01:15:01;;;;;;;3.38;1.80;;;;;;;3.64;100.00;101735.00;5038950;28;20065;-75
2022/12/28 01:17:26;;;;;;;7.07;3.35;;;;;;;3.37;100.00;101698.19;5051158;28;20052;-74
2022/12/28 01:19:52;;;;;;;22.83;3.50;;;;;;;3.71;100.00;101736.19;5055242;28;20064;-75
2022/12/28 01:22:17;;;;;;;7.43;3.90;;;;;;;4.35;100.00;101850.13;5055935;28;20053;-76
2022/12/28 01:24:43;;;;;;;8.65;2.65;;;;;;;3.64;100.00;101734.13;5057734;28;20610;-75
2022/12/28 01:27:08;;;;;;;5.43;2.75;;;;;;;4.13;100.00;101843.00;5059994;28;20036;-75
2022/12/28 01:29:34;;;;;;;4.70;3.00;;;;;;;4.12;100.00;101855.09;5058435;28;20048;-76
2022/12/28 01:31:59;;;;;;;5.20;2.63;;;;;;;3.35;100.00;101715.41;5058513;28;20571;-76
2022/12/28 01:34:24;;;;;;;4.50;2.05;;;;;;;3.19;100.00;101713.72;5055736;28;20063;-76
2022/12/28 01:36:50;;;;;;;16.95;3.67;;;;;;;3.63;100.00;101779.94;5051632;28;20040;-74
2022/12/28 01:39:15;;;;;;;4.10;2.50;;;;;;;3.43;100.00;101733.94;5041064;28;20037;-74
2022/12/28 01:41:41;;;;;;;4.40;1.40;;;;;;;3.26;100.00;101704.56;5054113;28;20125;-75
2022/12/28 01:44:09;;;;;;;6.35;2.88;;;;;;;3.26;100.00;101710.63;5045332;28;20129;-75
2022/12/28 01:46:57;;;;;;;6.22;2.50;;;;;;;3.99;100.00;101856.19;5041803;28;20080;-75
2022/12/28 01:49:28;;;;;;;7.88;2.67;;;;;;;3.29;100.00;101746.22;5034297;28;20048;-75
2022/12/28 01:52:03;;;;;;;5.47;2.22;;;;;;;3.32;100.00;101738.56;5041113;28;20083;-75
2022/12/28 01:54:34;;;;;;;8.43;2.45;;;;;;;3.86;100.00;101852.88;5042138;28;20041;-76
2022/12/28 01:57:00;;;;;;;3.83;1.88;;;;;;;3.90;100.00;101854.84;5036842;28;20077;-76
2022/12/28 01:59:30;;;;;;;5.65;3.08;;;;;;;3.69;100.00;101824.38;5037110;28;20095;-75
2022/12/28 02:01:56;;;;;;;4.95;2.08;;;;;;;2.98;100.00;101697.97;5037665;28;20053;-75
2022/12/28 02:04:24;;;;;;;10.30;3.00;;;;;;;3.72;100.00;101836.59;5047317;28;20255;-75
2022/12/28 02:06:49;;;;;;;8.75;3.08;;;;;;;3.95;100.00;101875.00;5056688;28;20079;-76
2022/12/28 02:09:32;;;;;;;7.53;2.47;;;;;;;3.22;100.00;101738.94;5054503;28;20475;-74
2022/12/28 02:11:59;;;;;;;9.82;4.22;;;;;;;3.69;100.00;101844.25;5054694;28;20430;-75
2022/12/28 02:14:25;;;;;;;6.93;2.33;;;;;;;3.10;100.00;101745.25;5056139;28;20061;-75
2022/12/28 02:16:53;;;;;;;4.57;1.85;;;;;;;3.78;100.00;101866.38;5056829;28;20098;-76
2022/12/28 02:19:30;;;;;;;6.10;2.40;;;;;;;3.14;100.00;101744.63;5055438;28;20150;-74
2022/12/28 02:22:26;;;;;;;10.73;3.38;;;;;;;4.05;100.00;101891.97;5049879;28;20049;-74
2022/12/28 02:25:41;;;;;;;4.45;1.83;;;;;;;3.94;100.00;101882.75;5000365;28;20544;-74
2022/12/28 02:28:34;;;;;;;4.28;2.22;;;;;;;3.96;100.00;101891.50;5012816;28;20565;-74
2022/12/28 02:31:08;;;;;;;10.27;3.43;;;;;;;3.95;100.00;101879.31;5054349;28;20145;-75
2022/12/28 02:33:49;;;;;;;9.70;3.08;;;;;;;3.29;100.00;101738.44;5055656;28;20452;-75
2022/12/28 02:36:22;;;;;;;10.25;2.38;;;;;;;3.39;100.00;101743.25;5059663;28;20042;-75
2022/12/28 02:38:53;;;;;;;6.78;3.53;;;;;;;3.25;100.00;101733.88;5062189;28;20051;-75
2022/12/28 02:41:23;;;;;;;7.10;2.65;;;;;;;4.05;100.00;101883.25;5058628;28;20048;-74
2022/12/28 02:43:49;;;;;;;5.18;2.58;;;;;;;3.26;100.00;101743.47;5057492;28;20590;-75
2022/12/28 02:52:17;;;;;;;5.15;2.42;;;;;;;4.12;100.00;101898.34;5034753;28;20681;-74
2022/12/28 02:58:33;;;;;;;16.08;4.00;;;;;;;4.13;100.00;101902.75;5050597;28;20056;-74
2022/12/28 03:01:36;;;;;;;6.45;3.25;;;;;;;4.12;100.00;101904.44;5041824;28;20048;-76
2022/12/28 03:04:54;;;;;;;7.07;2.47;;;;;;;3.62;100.00;101819.69;5060054;28;20064;-73
2022/12/28 03:10:25;;;;;;;7.88;2.88;;;;;;;3.20;100.00;101766.47;5058279;28;20075;-75
2022/12/28 03:13:00;;;;;;;4.70;1.83;;;;;;;3.98;100.00;101924.53;5057757;28;20128;-75
2022/12/28 03:15:33;;;;;;;5.13;2.25;;;;;;;3.76;100.00;101896.53;5050933;28;20488;-75
2022/12/28 03:32:03;;;;;;;8.25;2.75;;;;;;;3.02;100.00;101789.75;5061144;28;20403;-74
2022/12/28 03:34:29;;;;;;;8.93;2.45;;;;;;;3.90;100.00;101936.22;5058284;28;20499;-73
2022/12/28 03:37:09;;;;;;;6.57;2.63;;;;;;;3.82;100.00;101924.56;5059682;28;20074;-74
2022/12/28 03:39:35;;;;;;;6.80;3.55;;;;;;;2.94;100.00;101785.03;5058914;28;20115;-74
2022/12/28 03:45:11;;;;;;;5.53;2.42;;;;;;;3.04;100.00;101778.63;5059807;28;20055;-73
2022/12/28 03:47:39;;;;;;;7.30;2.13;;;;;;;3.08;100.00;101790.97;5061024;28;20055;-74
2022/12/28 03:50:05;;;;;;;12.73;2.53;;;;;;;3.87;100.00;101943.84;5057644;28;20087;-74
2022/12/28 03:52:31;;;;;;;21.27;4.30;;;;;;;3.80;100.00;101944.34;5059442;28;20068;-74
2022/12/28 03:54:57;;;;;;;7.72;2.42;;;;;;;3.72;100.00;101935.25;5054890;28;20069;-74
2022/12/28 03:57:23;;;;;;;5.65;2.78;;;;;;;3.79;100.00;101953.84;5037225;28;20056;-74
2022/12/28 03:59:48;;;;;;;10.65;2.95;;;;;;;3.30;100.00;101854.34;5058970;28;20052;-75
2022/12/28 04:02:14;;;;;;;8.13;2.90;;;;;;;3.76;100.00;101943.28;5059357;28;20131;-75
2022/12/28 04:04:39;;;;;;;8.70;3.47;;;;;;;3.12;100.00;101826.63;5061715;28;20040;-75
2022/12/28 04:07:05;;;;;;;6.45;1.60;;;;;;;3.55;100.00;101917.09;5053849;28;20048;-74
2022/12/28 04:09:31;;;;;;;7.05;2.88;;;;;;;3.01;100.00;101807.00;5037860;28;20033;-75
2022/12/28 04:11:57;;;;;;;7.05;2.97;;;;;;;3.71;100.00;101938.66;5060629;28;20064;-74
2022/12/28 04:14:22;;;;;;;5.70;3.13;;;;;;;3.04;100.00;101840.88;5061169;28;20101;-75
2022/12/28 04:16:48;;;;;;;9.45;2.30;;;;;;;3.49;100.00;101934.94;5061582;28;20391;-75
2022/12/28 04:19:13;;;;;;;10.00;2.15;;;;;;;3.11;100.00;101871.53;5053660;28;20052;-75
2022/12/28 04:21:39;;;;;;;9.10;3.33;;;;;;;3.71;100.00;101962.91;5040439;28;20094;-75
2022/12/28 04:24:04;;;;;;;16.00;4.43;;;;;;;3.56;100.00;101949.16;5039548;28;20040;-75
2022/12/28 04:26:30;;;;;;;15.25;2.20;;;;;;;3.08;100.00;101857.50;5061360;28;20488;-74
2022/12/28 04:29:00;;;;;;;11.55;2.35;;;;;;;3.83;100.00;101983.44;5056361;28;20053;-75
2022/12/28 04:31:27;;;;;;;19.17;2.78;;;;;;;3.77;100.00;101975.34;5058245;28;20408;-75
2022/12/28 04:33:52;;;;;;;5.50;2.03;;;;;;;3.74;100.00;101976.06;5059111;28;20045;-75
2022/12/28 04:36:18;;;;;;;8.38;2.78;;;;;;;2.88;100.00;101834.00;5040571;28;20039;-75
2022/12/28 04:38:43;;;;;;;7.00;3.35;;;;;;;3.67;100.00;101953.19;5057595;28;20056;-74
2022/12/28 04:41:10;;;;;;;4.57;3.13;;;;;;;2.86;100.00;101811.41;5059114;28;20496;-73
2022/12/28 04:43:36;;;;;;;5.82;2.50;;;;;;;3.60;100.00;101958.84;5055448;28;20083;-75
2022/12/28 04:46:04;;;;;;;7.60;2.50;;;;;;;2.94;100.00;101842.09;5060878;28;20485;-75
2022/12/28 04:48:30;;;;;;;7.20;2.70;;;;;;;3.55;100.00;101953.41;5058028;28;20078;-76
2022/12/28 04:50:56;;;;;;;6.22;2.67;;;;;;;3.86;100.00;102008.66;5058828;28;20578;-74
2022/12/28 04:53:22;;;;;;;10.68;3.72;;;;;;;3.79;100.00;101989.28;5059564;28;20057;-74
2022/12/28 04:55:48;;;;;;;10.88;3.03;;;;;;;3.13;100.00;101871.59;5055317;28;20119;-73
2022/12/28 04:58:14;;;;;;;19.48;4.45;;;;;;;3.69;100.00;101974.91;5049568;28;20052;-74
2022/12/28 05:00:39;;;;;;;5.47;2.47;;;;;;;3.78;100.00;101984.91;5038838;28;20451;-74
2022/12/28 05:03:05;;;;;;;4.88;2.50;;;;;;;3.19;100.00;101871.94;5059065;28;20036;-74
2022/12/28 05:05:31;;;;;;;6.55;2.28;;;;;;;3.82;100.00;101989.47;5059870;28;20056;-73
2022/12/28 05:08:00;;;;;;;6.72;2.60;;;;;;;3.92;100.00;101989.13;5059623;28;20067;-73
2022/12/28 05:10:26;;;;;;;8.07;2.33;;;;;;;3.31;100.00;101913.19;5060380;28;20040;-76
2022/12/28 05:12:53;;;;;;;9.32;3.42;;;;;;;3.09;100.00;101854.09;5057139;28;20067;-74
2022/12/28 05:15:19;;;;;;;11.38;4.72;;;;;;;3.27;100.00;101857.66;5058257;28;20548;-76
2022/12/28 05:17:44;;;;;;;8.07;4.57;;;;;;;3.09;100.00;101851.50;5039647;28;20048;-75
2022/12/28 05:20:10;;;;;;;10.80;3.88;;;;;;;3.94;100.00;102009.97;5050770;28;20088;-75
2022/12/28 05:22:36;;;;;;;12.48;4.30;;;;;;;3.85;100.00;101981.81;5046990;28;20061;-76
2022/12/28 05:25:01;;;;;;;8.25;4.55;;;;;;;3.97;100.00;102008.41;5040424;28;20896;-76
2022/12/28 05:27:27;;;;;;;8.43;3.42;;;;;;;4.12;100.00;102003.16;5057452;28;20036;-76
2022/12/28 05:29:52;;;;;;;9.35;3.88;;;;;;;4.05;100.00;101994.94;5043519;28;20037;-75
2022/12/28 05:32:17;;;;;;;8.43;3.53;;;;;;;3.18;100.00;101857.16;5038207;28;20056;-75
2022/12/28 05:34:43;;;;;;;8.60;3.05;;;;;;;3.22;100.00;101866.03;5039508;28;20052;-75
2022/12/28 05:37:09;;;;;;;17.05;3.45;;;;;;;3.20;100.00;101846.88;5043708;28;20036;-76
2022/12/28 05:39:35;;;;;;;13.30;4.10;;;;;;;3.45;100.00;101894.06;5056114;28;20036;-76
2022/12/28 05:42:01;;;;;;;6.15;3.15;;;;;;;4.11;100.00;102022.13;5054108;28;20041;-76
2022/12/28 05:44:27;;;;;;;8.88;3.28;;;;;;;3.88;100.00;102013.13;5039375;28;20128;-76
2022/12/28 05:46:52;;;;;;;8.88;3.63;;;;;;;3.76;100.00;102021.16;5050784;28;20048;-76
2022/12/28 05:49:18;;;;;;;8.30;3.33;;;;;;;3.91;100.00;102013.31;5046704;28;20053;-77
2022/12/28 05:51:43;;;;;;;4.55;2.55;;;;;;;3.05;100.00;101878.97;5037620;28;20442;-76
2022/12/28 05:54:09;;;;;;;8.65;3.80;;;;;;;3.93;100.00;102036.75;5056908;28;20039;-76
2022/12/28 05:56:35;;;;;;;7.03;2.78;;;;;;;3.82;100.00;101994.66;5057302;28;20091;-75
2022/12/28 05:59:03;;;;;;;8.25;3.75;;;;;;;3.81;100.00;102034.38;5055079;28;21051;-74
2022/12/28 06:01:35;;;;;;;11.32;3.40;;;;;;;3.09;100.00;101890.38;5054672;28;20139;-76
2022/12/28 06:04:03;;;;;;;16.08;2.97;;;;;;;3.22;100.00;101928.28;5055214;28;20056;-76
2022/12/28 06:06:30;;;;;;;7.35;2.72;;;;;;;3.80;100.00;102037.81;5053305;28;20040;-76
2022/12/28 06:08:56;;;;;;;13.15;4.03;;;;;;;3.59;100.00;102043.63;5045820;28;20045;-76
2022/12/28 06:11:23;;;;;;;6.55;2.78;;;;;;;3.13;100.00;101926.06;5035917;28;20041;-76
2022/12/28 06:13:50;;;;;;;6.50;3.33;;;;;;;2.97;100.00;101906.16;5046065;28;20075;-75
2022/12/28 06:16:22;;;;;;;7.65;4.10;;;;;;;3.06;100.00;101934.31;5049913;28;20044;-75
2022/12/28 06:18:48;;;;;;;10.63;3.22;;;;;;;3.12;100.00;101927.78;5039539;28;20055;-73
2022/12/28 06:21:18;;;;;;;6.88;3.53;;;;;;;3.58;100.00;102017.56;5056389;28;20040;-76
2022/12/28 06:23:44;;;;;;;10.07;3.88;;;;;;;3.81;100.00;102063.84;5038709;28;20136;-75
2022/12/28 06:26:12;;;;;;;13.60;5.90;;;;;;;3.18;100.00;101950.53;5042038;28;20132;-75
2022/12/28 06:28:39;;;;;;;8.45;3.42;;;;;;;3.64;100.00;102050.78;5038605;28;20037;-77
2022/12/28 06:31:09;;;;;;;6.93;3.50;;;;;;;3.50;100.00;101992.91;5036134;28;20057;-76
2022/12/28 06:33:35;;;;;;;15.00;4.85;;;;;;;3.23;100.00;101950.78;5035285;28;20087;-75
2022/12/28 06:36:01;;;;;;;9.27;3.55;;;;;;;3.89;100.00;102071.19;5035281;28;20043;-75
2022/12/28 06:38:28;;;;;;;9.52;4.88;;;;;;;3.00;100.00;101908.03;5035819;28;20508;-75
2022/12/28 06:40:53;;;;;;;6.70;3.67;;;;;;;3.81;100.00;102039.59;5035151;28;20432;-73
2022/12/28 06:43:19;;;;;;;6.82;4.38;;;;;;;3.18;100.00;101932.38;5035544;28;20076;-74
2022/12/28 06:45:55;;;;;;;10.52;3.90;;;;;;;3.97;100.00;102075.06;5035076;28;20051;-77
2022/12/28 06:48:21;;;;;;;11.82;4.07;;;;;;;3.73;100.00;102033.97;5059134;28;20085;-77
2022/12/28 06:51:03;;;;;;;19.23;5.18;;;;;;;3.58;100.00;102004.59;5051536;28;20049;-80
2022/12/28 06:53:31;;;;;;;13.82;5.13;;;;;;;3.52;100.00;101997.38;5069001;28;20441;-78
2022/12/28 06:55:59;;;;;;;5.93;3.22;;;;;;;3.93;100.00;102062.72;5061080;28;20135;-78
2022/12/28 06:58:26;;;;;;;12.60;4.05;;;;;;;3.81;100.00;102035.28;5054293;28;20048;-78
2022/12/28 07:00:53;;;;;;;5.35;3.65;;;;;;;4.17;100.00;102097.81;5053149;28;20162;-77
2022/12/28 07:03:19;;;;;;;11.95;4.65;;;;;;;3.38;100.00;101956.81;5037677;28;20033;-78
2022/12/28 07:05:45;;;;;;;8.07;4.47;;;;;;;4.00;100.00;102060.56;5037491;28;20055;-79
2022/12/28 07:08:10;;;;;;;8.95;3.60;;;;;;;4.18;100.00;102099.56;5051079;28;20433;-81
2022/12/28 07:10:36;;;;;;;5.60;4.07;;;;;;;3.35;100.00;101964.44;5064051;28;20053;-79
2022/12/28 07:13:03;;;;;;;10.27;4.82;;;;;;;4.13;100.00;102082.84;5045897;28;20052;-81
2022/12/28 07:15:29;;;;;;;13.35;4.95;;;;;;;4.11;100.00;102075.78;5053975;28;20033;-77
2022/12/28 07:17:54;;;;;;;10.65;5.82;;;;;;;3.55;100.00;101984.56;5060206;28;20041;-78
2022/12/28 07:20:20;;;;;;;6.65;4.07;;;;;;;4.09;100.00;102060.13;5058606;28;20423;-78
2022/12/28 07:22:45;;;;;;;8.18;3.88;;;;;;;3.25;100.00;101916.34;5060348;28;20072;-79
2022/12/28 07:25:11;;;;;;;12.00;3.38;;;;;;;4.29;100.00;102110.56;5049152;28;20049;-76
2022/12/28 07:27:36;;;;;;;9.35;3.42;;;;;;;4.10;100.00;102043.75;5032667;28;21568;-78
2022/12/28 07:30:03;;;;;;;24.52;4.05;;;;;;;4.21;100.00;102066.00;5035839;28;20853;-83
2022/12/28 07:32:28;;;;;;;10.40;4.28;;;;;;;3.67;100.00;101973.06;5037074;28;20062;-80
2022/12/28 07:34:54;;;;;;;14.18;5.93;;;;;;;4.55;100.00;102119.72;5035709;28;20440;-81
2022/12/28 07:37:21;;;;;;;12.90;4.10;;;;;;;3.89;100.00;101993.28;5041488;28;20587;-81
2022/12/28 07:39:46;;;;;;;8.50;3.20;;;;;;;3.59;100.00;101932.00;5039220;28;20218;-82
2022/12/28 07:42:12;;;;;;;11.05;4.38;;;;;;;4.53;100.00;102077.16;5037178;28;20124;-82
2022/12/28 07:44:40;;;;;;;10.82;3.80;;;;;;;3.85;100.00;101929.00;5055907;28;20138;-79
2022/12/28 07:47:06;;;;;;;10.43;2.85;;;;;;;3.89;100.00;101947.41;5055840;28;20049;-79
2022/12/28 07:49:32;;;;;;;8.18;4.55;;;;;;;4.19;100.00;101987.06;5044663;28;20610;-79
2022/12/28 07:51:57;;;;;;;19.00;5.63;;;;;;;4.76;100.00;102075.72;5042099;28;20809;-78
2022/12/28 07:54:23;;;;;;;12.98;4.18;;;;;;;4.85;100.00;102077.91;5041722;28;20028;-81
2022/12/28 07:56:48;;;;;;;11.50;5.63;;;;;;;4.98;100.00;102101.09;5033468;28;20143;-81
2022/12/28 07:59:13;;;;;;;5.72;2.70;;;;;;;4.13;100.00;101928.72;5036038;28;20042;-78
2022/12/28 08:01:39;;;;;;;7.50;3.78;;;;;;;5.16;100.00;102121.94;5035762;28;20052;-78
2022/12/28 08:04:08;;;;;;;9.27;3.80;;;;;;;5.14;100.00;102100.13;5046009;28;20110;-78
2022/12/28 08:06:36;;;;;;;10.02;3.53;;;;;;;5.16;100.00;102102.81;5053495;28;20047;-80
2022/12/28 08:09:03;;;;;;;6.18;2.75;;;;;;;4.89;100.00;102043.41;5049183;28;20564;-79
2022/12/28 08:11:31;;;;;;;8.90;3.03;;;;;;;4.28;100.00;101962.34;5055185;28;20151;-80
2022/12/28 08:13:57;;;;;;;11.98;3.90;;;;;;;5.20;100.00;102078.75;5045097;28;20063;-80
2022/12/28 08:16:25;;;;;;;9.23;3.67;;;;;;;5.48;100.00;102135.66;5045242;28;20052;-80
2022/12/28 08:18:51;;;;;;;11.23;4.93;;;;;;;5.47;100.00;102100.00;5055178;28;20059;-78
2022/12/28 08:21:37;;;;;;;11.50;5.10;;;;;;;5.30;100.00;102083.56;5057166;28;20495;-78
2022/12/28 08:24:04;;;;;;;12.20;4.63;;;;;;;5.02;100.00;102060.53;5069964;28;20061;-79
2022/12/28 08:26:38;;;;;;;9.68;4.07;;;;;;;5.40;100.00;102123.94;5051615;28;20600;-79
2022/12/28 08:29:04;;;;;;;;;;;;;;;5.46;100.00;102132.06;5056723;28;20073;-77
2022/12/28 08:31:36;;;;;;;16.90;4.22;;;;;;;5.31;100.00;102092.25;5051376;28;20167;-79
2022/12/28 08:34:05;;;;;;;11.77;4.20;;;;;;;5.44;100.00;102150.22;5049249;28;20059;-80
2022/12/28 08:36:31;;;;;;;8.30;3.63;;;;;;;5.59;100.00;102138.75;5053372;28;20041;-79
2022/12/28 08:38:58;;;;;;;11.23;5.13;;;;;;;5.58;100.00;102124.84;5058154;28;20534;-80
2022/12/28 08:41:25;;;;;;;8.38;3.75;;;;;;;5.63;100.00;102138.09;5055182;28;20041;-79
2022/12/28 08:43:53;;;;;;;7.18;3.45;;;;;;;5.61;100.00;102132.78;5047628;28;20077;-80
2022/12/28 08:46:27;;;;;;;7.47;3.47;;;;;;;5.56;100.00;102136.00;5046762;28;20424;-79
2022/12/28 08:48:55;;;;;;;7.80;3.45;;;;;;;5.38;100.00;102128.19;5041999;28;20123;-76
2022/12/28 08:51:24;;;;;;;5.82;3.63;;;;;;;5.65;100.00;102137.34;5058114;28;20488;-76
2022/12/28 08:53:50;;;;;;;10.85;3.95;;;;;;;4.95;100.00;102001.22;5054067;28;20059;-77
2022/12/28 08:56:21;;;;;;;4.28;2.60;;;;;;;5.58;100.00;102106.63;5039659;28;20049;-78
2022/12/28 08:58:48;;;;;;;11.80;3.47;;;;;;;5.42;100.00;102106.69;5044789;28;20055;-76
2022/12/28 09:01:17;;;;;;;10.15;3.90;;;;;;;5.33;100.00;102059.41;5057241;28;20523;-77
2022/12/28 09:03:45;;;;;;;8.80;4.72;;;;;;;5.75;100.00;102111.72;5059660;28;20086;-73
2022/12/28 09:06:14;;;;;;;6.05;3.40;;;;;;;5.16;100.00;102016.97;5039913;28;20032;-74
2022/12/28 09:08:41;;;;;;;15.82;4.75;;;;;;;5.66;100.00;102088.75;5054870;28;20466;-76
2022/12/28 09:11:09;;;;;;;8.10;3.30;;;;;;;5.71;100.00;102108.06;5059521;28;20051;-75
2022/12/28 09:13:36;;;;;;;11.27;3.63;;;;;;;5.58;100.00;102084.91;5059771;28;20059;-74
2022/12/28 09:16:04;;;;;;;12.02;4.65;;;;;;;4.88;100.00;101952.31;5063818;28;20162;-75
2022/12/28 09:18:31;;;;;;;10.02;4.53;;;;;;;5.36;100.00;102010.09;5061415;28;20123;-78
2022/12/28 09:21:07;;;;;;;15.25;5.20;;;;;;;5.90;100.00;102115.06;5060331;28;20044;-79
2022/12/28 09:23:33;;;;;;;17.77;6.63;;;;;;;5.78;100.00;102078.00;5055632;28;20107;-77
2022/12/28 09:26:07;;;;;;;12.70;6.50;;;;;;;5.09;100.00;101945.53;5058520;28;20116;-77
2022/12/28 09:28:32;;;;;;;13.48;7.35;;;;;;;5.62;100.00;102072.09;5057269;28;20192;-75
2022/12/28 09:31:05;;;;;;;14.88;7.35;;;;;;;5.89;100.00;102105.44;5054641;28;20053;-77
2022/12/28 09:36:15;;;;;;;12.93;8.25;;;;;;;5.89;100.00;102085.50;5038798;28;20192;-77
2022/12/28 09:38:42;;;;;;;15.07;7.07;;;;;;;5.90;100.00;102095.09;5054971;28;20662;-78
2022/12/28 09:41:19;;;;;;;14.85;8.75;;;;;;;6.05;100.00;102092.34;5053646;28;20094;-77
2022/12/28 09:43:45;;;;;;;14.95;9.43;;;;;;;5.84;100.00;102092.19;5057887;28;20049;-75
2022/12/28 09:46:11;;;;;;;16.17;8.10;;;;;;;5.23;100.00;101939.25;5056056;28;20076;-78
2022/12/28 09:48:39;;;;;;;16.67;8.82;;;;;;;5.56;100.00;101971.97;5056664;28;20379;-75
2022/12/28 09:51:05;;;;;;;16.13;9.07;;;;;;;6.43;100.00;102085.31;5034341;28;20045;-75
2022/12/28 09:53:33;;;;;;;15.82;6.70;;;;;;;5.50;100.00;101938.72;5055554;28;20056;-77
2022/12/28 09:56:03;;;;;;;10.70;6.07;;;;;;;6.01;100.00;101993.09;5055426;28;20127;-77
2022/12/28 09:58:32;;;;;;;15.95;5.78;;;;;;;6.42;100.00;102067.91;5061529;28;20543;-78
2022/12/28 10:01:00;;;;;;;10.20;4.72;;;;;;;5.76;100.00;101937.31;5050315;28;20052;-76
2022/12/28 10:03:42;;;;;;;10.13;4.65;;;;;;;5.83;100.00;101936.75;5054356;28;20831;-75
2022/12/28 10:06:15;;;;;;;6.70;4.25;;;;;;;6.61;100.00;102071.31;5051832;28;20040;-78
2022/12/28 10:08:45;;;;;;;7.28;3.72;;;;;;;5.84;100.00;101964.56;5054935;28;20052;-76
2022/12/28 10:11:26;;;;;;;10.40;4.15;;;;;;;6.48;100.00;102042.09;5051505;28;20049;-77
2022/12/28 10:13:58;;;;;;;9.48;4.43;;;;;;;6.23;100.00;101998.44;5056992;28;20111;-77
2022/12/28 10:16:26;;;;;;;7.45;3.30;;;;;;;6.03;100.00;101939.34;5056132;28;20044;-78
2022/12/28 10:18:52;;;;;;;13.05;2.78;;;;;;;6.68;100.00;102003.81;5057869;28;20049;-77
2022/12/28 10:21:21;;;;;;;12.18;4.20;;;;;;;6.72;100.00;102016.19;5054360;28;20047;-79
2022/12/28 10:23:52;;;;;;;10.20;3.70;;;;;;;6.92;100.00;102023.91;5057061;28;20496;-77
2022/12/28 10:26:19;;;;;;;9.38;4.03;;;;;;;6.93;100.00;102036.13;5055162;28;20825;-77
2022/12/28 10:28:57;;;;;;;6.68;4.07;;;;;;;7.00;100.00;102032.06;5054949;28;20631;-80
2022/12/28 10:31:37;;;;;;;9.13;3.97;;;;;;;6.41;100.00;101900.97;5069264;28;20131;-79
2022/12/28 10:34:21;;;;;;;8.32;3.53;;;;;;;7.18;100.00;102022.34;5057872;28;20576;-79
2022/12/28 10:36:49;;;;;;;9.10;4.28;;;;;;;6.97;97.24;101942.38;5052176;28;20041;-79
2022/12/28 10:39:21;;;;;;;9.80;4.07;;;;;;;6.73;88.49;101891.84;5056937;28;20041;-78
2022/12/28 10:41:47;;;;;;;7.93;2.97;;;;;;;6.84;88.63;101874.91;5034918;28;20831;-79
2022/12/28 10:44:29;;;;;;;6.63;3.67;;;;;;;7.85;86.73;101994.44;5037238;28;20156;-78
2022/12/28 10:47:04;;;;;;;9.73;4.18;;;;;;;7.98;80.49;101975.72;5042417;28;20056;-77
2022/12/28 10:49:49;;;;;;;10.88;4.55;;;;;;;8.56;80.60;102017.03;5042005;28;20089;-79
2022/12/28 10:52:14;;;;;;;9.63;5.28;;;;;;;8.81;77.00;102017.88;5041510;28;20117;-79
2022/12/28 10:54:40;;;;;;;7.28;3.75;;;;;;;7.95;71.91;101881.53;5039018;28;20455;-78
2022/12/28 10:57:16;;;;;;;8.68;4.15;;;;;;;8.38;66.45;101962.34;5041305;28;20059;-79
2022/12/28 10:59:42;;;;;;;7.82;4.03;;;;;;;8.58;65.80;101990.94;5043325;28;20041;-78
2022/12/28 11:02:29;;;;;;;9.75;4.05;;;;;;;8.03;69.51;101844.38;5041937;28;20493;-77
2022/12/28 11:05:03;;;;;;;6.68;3.42;;;;;;;8.54;67.13;101926.25;5042323;28;20041;-78
2022/12/28 11:07:33;;;;;;;9.27;3.13;;;;;;;8.68;67.25;102008.69;5050478;28;20049;-80
2022/12/28 11:10:25;;;;;;;7.38;3.30;;;;;;;8.48;70.39;102002.81;5056268;28;20152;-77
2022/12/28 11:12:54;;;;;;;8.15;3.60;;;;;;;8.81;70.61;101982.09;5035893;28;20062;-77
2022/12/28 11:15:27;;;;;;;9.88;2.63;;;;;;;8.66;67.23;101964.19;5060402;28;20090;-78
2022/12/28 11:17:55;;;;;;;5.88;2.55;;;;;;;8.01;65.36;101881.75;5059424;28;20071;-78
2022/12/28 11:20:51;;;;;;;5.63;2.35;;;;;;;8.31;65.47;101928.97;5059389;28;20049;-78
2022/12/28 11:23:21;;;;;;;5.25;1.65;;;;;;;8.42;65.70;101985.16;5060368;28;20040;-78
2022/12/28 11:25:47;;;;;;;5.93;2.10;;;;;;;8.34;65.61;101951.72;5066980;28;20113;-78
2022/12/28 11:28:16;;;;;;;9.65;3.00;;;;;;;7.58;66.19;101843.66;5061159;28;20048;-78
2022/12/28 11:30:43;;;;;;;11.38;3.53;;;;;;;7.66;68.47;101851.81;5057683;28;20090;-78
2022/12/28 11:33:31;;;;;;;10.52;3.05;;;;;;;8.40;68.94;101983.34;5060272;28;20079;-80
2022/12/28 11:35:57;;;;;;;6.15;2.80;;;;;;;8.03;71.70;101896.66;5044433;28;20535;-78
2022/12/28 11:38:40;;;;;;;7.38;2.92;;;;;;;8.04;70.11;101881.84;5041097;28;20058;-78
2022/12/28 11:41:10;;;;;;;7.53;2.80;;;;;;;8.08;70.06;101948.19;5044510;28;20052;-79
2022/12/28 11:43:39;;;;;;;6.97;2.85;;;;;;;8.26;66.54;101972.38;5039226;28;20045;-78
2022/12/28 11:46:24;;;;;;;4.78;2.38;;;;;;;8.10;70.96;101983.13;5041610;28;20048;-79
2022/12/28 11:48:58;;;;;;;6.07;2.78;;;;;;;8.20;74.47;101999.19;5033101;28;20041;-77
2022/12/28 11:51:33;;;;;;;8.10;3.03;;;;;;;8.04;74.90;101973.34;5043358;28;20032;-79
2022/12/28 11:54:56;;;;;;;6.78;3.50;;;;;;;8.15;74.13;101984.19;5029247;28;20644;-79
2022/12/28 11:57:39;;;;;;;6.70;2.83;;;;;;;7.36;80.36;101857.69;5000312;28;20056;-79
2022/12/28 12:00:17;;;;;;;13.43;3.40;;;;;;;8.09;80.30;101984.84;5051752;28;20040;-78
2022/12/28 12:02:59;;;;;;;12.15;3.65;;;;;;;7.67;80.11;101931.94;5042471;28;20394;-79
2022/12/28 12:05:46;;;;;;;12.15;3.70;;;;;;;7.29;84.63;101838.31;5041150;28;20077;-78
2022/12/28 12:08:14;;;;;;;6.95;2.80;;;;;;;7.82;82.15;101963.88;5057227;28;20045;-80